sensor_id;sensor_type;location;lat;lon;timestamp;P1;durP1;ratioP1;P2;durP2;ratioP2
5458;SDS011;2752;49.992;8.422;2023-08-12T00:00:42;12.30;;;6.47;;
5458;SDS011;2752;49.992;8.422;2023-08-12T00:03:09;25.70;;;6.90;;
5458;SDS011;2752;49.992;8.422;2023-08-12T00:05:35;15.87;;;6.00;;
5458;SDS011;2752;49.992;8.422;2023-08-12T00:08:03;13.03;;;6.63;;
5458;SDS011;2752;49.992;8.422;2023-08-12T00:10:30;11.77;;;5.97;;
5458;SDS011;2752;49.992;8.422;2023-08-12T00:12:57;15.63;;;6.63;;
5458;SDS011;2752;49.992;8.422;2023-08-12T00:15:25;18.53;;;6.73;;
5458;SDS011;2752;49.992;8.422;2023-08-12T00:17:52;21.47;;;7.50;;
5458;SDS011;2752;49.992;8.422;2023-08-12T00:20:19;17.37;;;6.67;;
5458;SDS011;2752;49.992;8.422;2023-08-12T00:22:45;21.97;;;6.57;;
5458;SDS011;2752;49.992;8.422;2023-08-12T00:25:12;13.83;;;6.30;;
5458;SDS011;2752;49.992;8.422;2023-08-12T00:27:39;11.43;;;6.03;;
5458;SDS011;2752;49.992;8.422;2023-08-12T00:30:06;9.83;;;6.30;;
5458;SDS011;2752;49.992;8.422;2023-08-12T00:32:35;9.80;;;5.67;;
5458;SDS011;2752;49.992;8.422;2023-08-12T00:35:01;28.53;;;6.67;;
5458;SDS011;2752;49.992;8.422;2023-08-12T00:37:29;12.57;;;5.90;;
5458;SDS011;2752;49.992;8.422;2023-08-12T00:39:55;12.80;;;5.77;;
5458;SDS011;2752;49.992;8.422;2023-08-12T00:42:22;14.33;;;6.93;;
5458;SDS011;2752;49.992;8.422;2023-08-12T00:44:49;20.10;;;5.30;;
5458;SDS011;2752;49.992;8.422;2023-08-12T00:47:15;12.23;;;5.47;;
5458;SDS011;2752;49.992;8.422;2023-08-12T00:49:44;15.70;;;6.03;;
5458;SDS011;2752;49.992;8.422;2023-08-12T00:52:10;10.20;;;4.90;;
5458;SDS011;2752;49.992;8.422;2023-08-12T00:54:38;7.87;;;5.83;;
5458;SDS011;2752;49.992;8.422;2023-08-12T00:57:04;13.67;;;5.27;;
5458;SDS011;2752;49.992;8.422;2023-08-12T00:59:33;11.03;;;5.60;;
5458;SDS011;2752;49.992;8.422;2023-08-12T01:02:01;13.60;;;5.27;;
5458;SDS011;2752;49.992;8.422;2023-08-12T01:04:29;9.50;;;5.73;;
5458;SDS011;2752;49.992;8.422;2023-08-12T01:06:57;11.67;;;5.60;;
5458;SDS011;2752;49.992;8.422;2023-08-12T01:09:23;9.93;;;5.60;;
5458;SDS011;2752;49.992;8.422;2023-08-12T01:11:52;10.70;;;5.50;;
5458;SDS011;2752;49.992;8.422;2023-08-12T01:14:27;11.83;;;5.60;;
5458;SDS011;2752;49.992;8.422;2023-08-12T01:16:59;9.17;;;5.27;;
5458;SDS011;2752;49.992;8.422;2023-08-12T01:19:29;12.27;;;5.47;;
5458;SDS011;2752;49.992;8.422;2023-08-12T01:22:01;10.27;;;5.50;;
5458;SDS011;2752;49.992;8.422;2023-08-12T01:24:35;13.80;;;5.40;;
5458;SDS011;2752;49.992;8.422;2023-08-12T01:27:02;10.00;;;5.40;;
5458;SDS011;2752;49.992;8.422;2023-08-12T01:29:29;11.07;;;5.33;;
5458;SDS011;2752;49.992;8.422;2023-08-12T01:31:58;10.30;;;5.73;;
5458;SDS011;2752;49.992;8.422;2023-08-12T01:34:34;12.40;;;6.17;;
5458;SDS011;2752;49.992;8.422;2023-08-12T01:37:07;9.80;;;5.23;;
5458;SDS011;2752;49.992;8.422;2023-08-12T01:39:38;14.60;;;5.67;;
5458;SDS011;2752;49.992;8.422;2023-08-12T01:42:08;9.23;;;5.20;;
5458;SDS011;2752;49.992;8.422;2023-08-12T01:44:35;9.70;;;5.33;;
5458;SDS011;2752;49.992;8.422;2023-08-12T01:47:02;12.43;;;5.90;;
5458;SDS011;2752;49.992;8.422;2023-08-12T01:49:28;8.37;;;5.37;;
5458;SDS011;2752;49.992;8.422;2023-08-12T01:51:55;7.27;;;4.90;;
5458;SDS011;2752;49.992;8.422;2023-08-12T01:54:22;7.20;;;5.27;;
5458;SDS011;2752;49.992;8.422;2023-08-12T01:56:50;9.20;;;4.97;;
5458;SDS011;2752;49.992;8.422;2023-08-12T01:59:16;12.53;;;5.07;;
5458;SDS011;2752;49.992;8.422;2023-08-12T02:01:43;10.73;;;5.57;;
5458;SDS011;2752;49.992;8.422;2023-08-12T02:04:10;10.20;;;5.73;;
5458;SDS011;2752;49.992;8.422;2023-08-12T02:06:36;10.60;;;5.30;;
5458;SDS011;2752;49.992;8.422;2023-08-12T02:09:03;10.33;;;6.00;;
5458;SDS011;2752;49.992;8.422;2023-08-12T02:11:30;11.97;;;5.90;;
5458;SDS011;2752;49.992;8.422;2023-08-12T02:13:58;9.07;;;5.43;;
5458;SDS011;2752;49.992;8.422;2023-08-12T02:16:24;7.60;;;5.67;;
5458;SDS011;2752;49.992;8.422;2023-08-12T02:18:51;14.83;;;5.43;;
5458;SDS011;2752;49.992;8.422;2023-08-12T02:21:18;14.40;;;7.10;;
5458;SDS011;2752;49.992;8.422;2023-08-12T02:23:44;9.70;;;6.03;;
5458;SDS011;2752;49.992;8.422;2023-08-12T02:26:11;11.50;;;6.20;;
5458;SDS011;2752;49.992;8.422;2023-08-12T02:28:38;10.97;;;6.57;;
5458;SDS011;2752;49.992;8.422;2023-08-12T02:31:06;15.87;;;7.03;;
5458;SDS011;2752;49.992;8.422;2023-08-12T02:33:32;14.23;;;6.77;;
5458;SDS011;2752;49.992;8.422;2023-08-12T02:35:59;8.50;;;6.07;;
5458;SDS011;2752;49.992;8.422;2023-08-12T02:38:25;12.83;;;7.13;;
5458;SDS011;2752;49.992;8.422;2023-08-12T02:40:52;18.03;;;9.23;;
5458;SDS011;2752;49.992;8.422;2023-08-12T02:43:20;11.83;;;7.83;;
5458;SDS011;2752;49.992;8.422;2023-08-12T02:45:47;12.50;;;7.77;;
5458;SDS011;2752;49.992;8.422;2023-08-12T02:48:15;9.27;;;7.57;;
5458;SDS011;2752;49.992;8.422;2023-08-12T02:50:41;13.50;;;7.90;;
5458;SDS011;2752;49.992;8.422;2023-08-12T02:53:08;16.77;;;7.90;;
5458;SDS011;2752;49.992;8.422;2023-08-12T02:55:36;12.40;;;7.50;;
5458;SDS011;2752;49.992;8.422;2023-08-12T02:58:03;12.43;;;7.17;;
5458;SDS011;2752;49.992;8.422;2023-08-12T03:00:30;13.40;;;7.30;;
5458;SDS011;2752;49.992;8.422;2023-08-12T03:02:56;11.77;;;7.30;;
5458;SDS011;2752;49.992;8.422;2023-08-12T03:05:24;13.80;;;8.00;;
5458;SDS011;2752;49.992;8.422;2023-08-12T03:07:51;21.53;;;7.10;;
5458;SDS011;2752;49.992;8.422;2023-08-12T03:10:18;12.90;;;7.87;;
5458;SDS011;2752;49.992;8.422;2023-08-12T03:12:45;16.30;;;6.63;;
5458;SDS011;2752;49.992;8.422;2023-08-12T03:15:12;20.23;;;7.70;;
5458;SDS011;2752;49.992;8.422;2023-08-12T03:17:38;16.00;;;8.80;;
5458;SDS011;2752;49.992;8.422;2023-08-12T03:20:07;12.80;;;7.80;;
5458;SDS011;2752;49.992;8.422;2023-08-12T03:22:35;12.93;;;8.10;;
5458;SDS011;2752;49.992;8.422;2023-08-12T03:25:02;16.90;;;8.90;;
5458;SDS011;2752;49.992;8.422;2023-08-12T03:27:29;15.10;;;9.33;;
5458;SDS011;2752;49.992;8.422;2023-08-12T03:29:56;19.60;;;10.10;;
5458;SDS011;2752;49.992;8.422;2023-08-12T03:32:23;14.90;;;9.40;;
5458;SDS011;2752;49.992;8.422;2023-08-12T03:34:51;21.87;;;12.40;;
5458;SDS011;2752;49.992;8.422;2023-08-12T03:37:18;24.10;;;11.70;;
5458;SDS011;2752;49.992;8.422;2023-08-12T03:39:46;21.77;;;11.30;;
5458;SDS011;2752;49.992;8.422;2023-08-12T03:42:12;24.57;;;13.17;;
5458;SDS011;2752;49.992;8.422;2023-08-12T03:44:40;23.20;;;13.50;;
5458;SDS011;2752;49.992;8.422;2023-08-12T03:47:07;31.57;;;14.00;;
5458;SDS011;2752;49.992;8.422;2023-08-12T03:49:33;25.83;;;13.90;;
5458;SDS011;2752;49.992;8.422;2023-08-12T03:52:00;21.03;;;13.60;;
5458;SDS011;2752;49.992;8.422;2023-08-12T03:54:28;18.97;;;12.63;;
5458;SDS011;2752;49.992;8.422;2023-08-12T03:56:56;19.30;;;12.00;;
5458;SDS011;2752;49.992;8.422;2023-08-12T03:59:22;22.90;;;12.97;;
5458;SDS011;2752;49.992;8.422;2023-08-12T04:01:49;19.07;;;12.60;;
5458;SDS011;2752;49.992;8.422;2023-08-12T04:04:16;25.43;;;12.03;;
5458;SDS011;2752;49.992;8.422;2023-08-12T04:06:42;19.77;;;12.53;;
5458;SDS011;2752;49.992;8.422;2023-08-12T04:09:09;29.03;;;13.60;;
5458;SDS011;2752;49.992;8.422;2023-08-12T04:11:35;28.00;;;12.83;;
5458;SDS011;2752;49.992;8.422;2023-08-12T04:14:04;23.70;;;12.57;;
5458;SDS011;2752;49.992;8.422;2023-08-12T04:16:30;20.40;;;13.10;;
5458;SDS011;2752;49.992;8.422;2023-08-12T04:18:57;20.53;;;12.87;;
5458;SDS011;2752;49.992;8.422;2023-08-12T04:21:23;19.30;;;12.67;;
5458;SDS011;2752;49.992;8.422;2023-08-12T04:23:50;20.87;;;13.53;;
5458;SDS011;2752;49.992;8.422;2023-08-12T04:26:17;27.20;;;13.57;;
5458;SDS011;2752;49.992;8.422;2023-08-12T04:28:43;22.67;;;14.20;;
5458;SDS011;2752;49.992;8.422;2023-08-12T04:31:11;24.50;;;13.87;;
5458;SDS011;2752;49.992;8.422;2023-08-12T04:33:39;21.20;;;12.33;;
5458;SDS011;2752;49.992;8.422;2023-08-12T04:36:06;25.90;;;13.87;;
5458;SDS011;2752;49.992;8.422;2023-08-12T04:38:33;19.90;;;13.40;;
5458;SDS011;2752;49.992;8.422;2023-08-12T04:41:00;26.47;;;12.87;;
5458;SDS011;2752;49.992;8.422;2023-08-12T04:43:27;23.67;;;14.27;;
5458;SDS011;2752;49.992;8.422;2023-08-12T04:45:54;25.90;;;12.50;;
5458;SDS011;2752;49.992;8.422;2023-08-12T04:48:22;27.00;;;12.73;;
5458;SDS011;2752;49.992;8.422;2023-08-12T04:50:48;21.17;;;12.53;;
5458;SDS011;2752;49.992;8.422;2023-08-12T04:53:15;23.13;;;12.87;;
5458;SDS011;2752;49.992;8.422;2023-08-12T04:55:42;24.33;;;12.67;;
5458;SDS011;2752;49.992;8.422;2023-08-12T04:58:08;23.17;;;12.93;;
5458;SDS011;2752;49.992;8.422;2023-08-12T05:00:35;28.77;;;12.80;;
5458;SDS011;2752;49.992;8.422;2023-08-12T05:03:02;24.80;;;12.63;;
5458;SDS011;2752;49.992;8.422;2023-08-12T05:05:30;22.03;;;12.97;;
5458;SDS011;2752;49.992;8.422;2023-08-12T05:07:57;29.50;;;12.50;;
5458;SDS011;2752;49.992;8.422;2023-08-12T05:10:23;19.20;;;12.60;;
5458;SDS011;2752;49.992;8.422;2023-08-12T05:12:50;22.57;;;12.90;;
5458;SDS011;2752;49.992;8.422;2023-08-12T05:15:19;22.53;;;14.07;;
5458;SDS011;2752;49.992;8.422;2023-08-12T05:17:45;19.47;;;13.40;;
5458;SDS011;2752;49.992;8.422;2023-08-12T05:20:12;23.73;;;13.47;;
5458;SDS011;2752;49.992;8.422;2023-08-12T05:22:40;27.87;;;13.33;;
5458;SDS011;2752;49.992;8.422;2023-08-12T05:25:07;22.93;;;12.93;;
5458;SDS011;2752;49.992;8.422;2023-08-12T05:27:34;21.20;;;12.67;;
5458;SDS011;2752;49.992;8.422;2023-08-12T05:30:00;25.03;;;12.67;;
5458;SDS011;2752;49.992;8.422;2023-08-12T05:32:27;20.87;;;13.30;;
5458;SDS011;2752;49.992;8.422;2023-08-12T05:34:54;18.67;;;12.27;;
5458;SDS011;2752;49.992;8.422;2023-08-12T05:37:21;20.03;;;12.30;;
5458;SDS011;2752;49.992;8.422;2023-08-12T05:39:49;26.20;;;14.10;;
5458;SDS011;2752;49.992;8.422;2023-08-12T05:42:16;21.77;;;12.23;;
5458;SDS011;2752;49.992;8.422;2023-08-12T05:44:43;24.67;;;13.33;;
5458;SDS011;2752;49.992;8.422;2023-08-12T05:47:09;20.17;;;12.60;;
5458;SDS011;2752;49.992;8.422;2023-08-12T05:49:36;20.50;;;12.90;;
5458;SDS011;2752;49.992;8.422;2023-08-12T05:52:03;23.70;;;13.63;;
5458;SDS011;2752;49.992;8.422;2023-08-12T05:54:30;22.40;;;15.53;;
5458;SDS011;2752;49.992;8.422;2023-08-12T05:56:58;20.07;;;13.30;;
5458;SDS011;2752;49.992;8.422;2023-08-12T05:59:25;22.73;;;13.00;;
5458;SDS011;2752;49.992;8.422;2023-08-12T06:01:52;21.47;;;13.23;;
5458;SDS011;2752;49.992;8.422;2023-08-12T06:04:19;31.17;;;12.87;;
5458;SDS011;2752;49.992;8.422;2023-08-12T06:06:45;24.97;;;14.80;;
5458;SDS011;2752;49.992;8.422;2023-08-12T06:09:12;22.63;;;13.43;;
5458;SDS011;2752;49.992;8.422;2023-08-12T06:11:39;23.13;;;14.00;;
5458;SDS011;2752;49.992;8.422;2023-08-12T06:14:07;18.40;;;12.20;;
5458;SDS011;2752;49.992;8.422;2023-08-12T06:16:33;29.37;;;13.17;;
5458;SDS011;2752;49.992;8.422;2023-08-12T06:19:00;18.27;;;12.20;;
5458;SDS011;2752;49.992;8.422;2023-08-12T06:21:27;25.87;;;11.73;;
5458;SDS011;2752;49.992;8.422;2023-08-12T06:23:53;17.87;;;12.50;;
5458;SDS011;2752;49.992;8.422;2023-08-12T06:26:21;23.77;;;13.17;;
5458;SDS011;2752;49.992;8.422;2023-08-12T06:28:47;20.03;;;12.27;;
5458;SDS011;2752;49.992;8.422;2023-08-12T06:31:15;32.23;;;13.30;;
5458;SDS011;2752;49.992;8.422;2023-08-12T06:33:42;19.30;;;11.57;;
5458;SDS011;2752;49.992;8.422;2023-08-12T06:36:09;17.23;;;11.80;;
5458;SDS011;2752;49.992;8.422;2023-08-12T06:38:37;20.50;;;10.63;;
5458;SDS011;2752;49.992;8.422;2023-08-12T06:41:03;15.07;;;10.07;;
5458;SDS011;2752;49.992;8.422;2023-08-12T06:43:30;16.27;;;11.10;;
5458;SDS011;2752;49.992;8.422;2023-08-12T06:45:57;18.77;;;10.53;;
5458;SDS011;2752;49.992;8.422;2023-08-12T06:48:25;14.77;;;10.20;;
5458;SDS011;2752;49.992;8.422;2023-08-12T06:50:52;17.73;;;8.90;;
5458;SDS011;2752;49.992;8.422;2023-08-12T06:53:20;18.90;;;11.40;;
5458;SDS011;2752;49.992;8.422;2023-08-12T06:55:46;21.20;;;9.00;;
5458;SDS011;2752;49.992;8.422;2023-08-12T06:58:13;14.60;;;9.60;;
5458;SDS011;2752;49.992;8.422;2023-08-12T07:00:40;19.30;;;8.73;;
5458;SDS011;2752;49.992;8.422;2023-08-12T07:03:07;13.53;;;8.27;;
5458;SDS011;2752;49.992;8.422;2023-08-12T07:05:35;19.67;;;9.00;;
5458;SDS011;2752;49.992;8.422;2023-08-12T07:08:01;13.07;;;8.40;;
5458;SDS011;2752;49.992;8.422;2023-08-12T07:10:28;15.70;;;8.83;;
5458;SDS011;2752;49.992;8.422;2023-08-12T07:12:55;15.30;;;9.00;;
5458;SDS011;2752;49.992;8.422;2023-08-12T07:15:22;13.20;;;7.60;;
5458;SDS011;2752;49.992;8.422;2023-08-12T07:17:48;13.20;;;8.20;;
5458;SDS011;2752;49.992;8.422;2023-08-12T07:20:15;14.77;;;7.73;;
5458;SDS011;2752;49.992;8.422;2023-08-12T07:22:43;11.87;;;7.73;;
5458;SDS011;2752;49.992;8.422;2023-08-12T07:25:10;11.80;;;7.73;;
5458;SDS011;2752;49.992;8.422;2023-08-12T07:27:37;16.20;;;8.97;;
5458;SDS011;2752;49.992;8.422;2023-08-12T07:30:04;19.13;;;7.53;;
5458;SDS011;2752;49.992;8.422;2023-08-12T07:32:32;11.60;;;7.90;;
5458;SDS011;2752;49.992;8.422;2023-08-12T07:34:59;22.93;;;9.83;;
5458;SDS011;2752;49.992;8.422;2023-08-12T07:37:26;13.70;;;8.20;;
5458;SDS011;2752;49.992;8.422;2023-08-12T07:39:54;14.80;;;8.23;;
5458;SDS011;2752;49.992;8.422;2023-08-12T07:42:20;19.00;;;9.03;;
5458;SDS011;2752;49.992;8.422;2023-08-12T07:44:47;13.47;;;8.43;;
5458;SDS011;2752;49.992;8.422;2023-08-12T07:47:13;14.70;;;8.63;;
5458;SDS011;2752;49.992;8.422;2023-08-12T07:49:41;14.37;;;8.77;;
5458;SDS011;2752;49.992;8.422;2023-08-12T07:52:08;15.47;;;9.27;;
5458;SDS011;2752;49.992;8.422;2023-08-12T07:54:35;20.10;;;9.17;;
5458;SDS011;2752;49.992;8.422;2023-08-12T07:57:03;17.40;;;8.20;;
5458;SDS011;2752;49.992;8.422;2023-08-12T07:59:30;18.73;;;8.60;;
5458;SDS011;2752;49.992;8.422;2023-08-12T08:01:56;13.13;;;8.20;;
5458;SDS011;2752;49.992;8.422;2023-08-12T08:04:23;12.40;;;8.00;;
5458;SDS011;2752;49.992;8.422;2023-08-12T08:06:49;14.83;;;9.20;;
5458;SDS011;2752;49.992;8.422;2023-08-12T08:09:16;11.10;;;8.20;;
5458;SDS011;2752;49.992;8.422;2023-08-12T08:11:43;12.80;;;9.00;;
5458;SDS011;2752;49.992;8.422;2023-08-12T08:14:11;13.63;;;7.90;;
5458;SDS011;2752;49.992;8.422;2023-08-12T08:16:37;18.20;;;7.83;;
5458;SDS011;2752;49.992;8.422;2023-08-12T08:19:05;23.00;;;9.87;;
5458;SDS011;2752;49.992;8.422;2023-08-12T08:21:31;16.77;;;8.90;;
5458;SDS011;2752;49.992;8.422;2023-08-12T08:23:58;13.77;;;8.30;;
5458;SDS011;2752;49.992;8.422;2023-08-12T08:26:25;15.47;;;7.87;;
5458;SDS011;2752;49.992;8.422;2023-08-12T08:28:51;15.10;;;9.03;;
5458;SDS011;2752;49.992;8.422;2023-08-12T08:31:19;11.37;;;7.80;;
5458;SDS011;2752;49.992;8.422;2023-08-12T08:33:46;19.07;;;8.57;;
5458;SDS011;2752;49.992;8.422;2023-08-12T08:36:13;14.60;;;7.37;;
5458;SDS011;2752;49.992;8.422;2023-08-12T08:38:39;11.07;;;7.80;;
5458;SDS011;2752;49.992;8.422;2023-08-12T08:41:06;15.70;;;7.63;;
5458;SDS011;2752;49.992;8.422;2023-08-12T08:43:35;12.23;;;7.77;;
5458;SDS011;2752;49.992;8.422;2023-08-12T08:46:03;15.47;;;8.43;;
5458;SDS011;2752;49.992;8.422;2023-08-12T08:48:32;12.27;;;7.50;;
5458;SDS011;2752;49.992;8.422;2023-08-12T08:50:59;14.20;;;8.00;;
5458;SDS011;2752;49.992;8.422;2023-08-12T08:53:27;11.43;;;6.73;;
5458;SDS011;2752;49.992;8.422;2023-08-12T08:55:53;12.40;;;7.20;;
5458;SDS011;2752;49.992;8.422;2023-08-12T08:58:21;10.37;;;6.90;;
5458;SDS011;2752;49.992;8.422;2023-08-12T09:00:48;10.23;;;6.83;;
5458;SDS011;2752;49.992;8.422;2023-08-12T09:03:16;13.20;;;8.67;;
5458;SDS011;2752;49.992;8.422;2023-08-12T09:05:44;12.10;;;6.93;;
5458;SDS011;2752;49.992;8.422;2023-08-12T09:08:11;12.10;;;6.63;;
5458;SDS011;2752;49.992;8.422;2023-08-12T09:10:38;12.60;;;6.77;;
5458;SDS011;2752;49.992;8.422;2023-08-12T09:13:06;9.37;;;5.37;;
5458;SDS011;2752;49.992;8.422;2023-08-12T09:15:33;14.73;;;5.60;;
5458;SDS011;2752;49.992;8.422;2023-08-12T09:18:00;10.90;;;5.30;;
5458;SDS011;2752;49.992;8.422;2023-08-12T09:20:27;6.40;;;5.20;;
5458;SDS011;2752;49.992;8.422;2023-08-12T09:22:58;8.90;;;6.27;;
5458;SDS011;2752;49.992;8.422;2023-08-12T09:25:26;10.30;;;6.47;;
5458;SDS011;2752;49.992;8.422;2023-08-12T09:27:54;14.23;;;6.37;;
5458;SDS011;2752;49.992;8.422;2023-08-12T09:30:21;12.13;;;5.30;;
5458;SDS011;2752;49.992;8.422;2023-08-12T09:32:57;7.10;;;3.77;;
5458;SDS011;2752;49.992;8.422;2023-08-12T09:35:30;6.43;;;3.70;;
5458;SDS011;2752;49.992;8.422;2023-08-12T09:38:01;6.40;;;4.40;;
5458;SDS011;2752;49.992;8.422;2023-08-12T09:40:29;9.40;;;5.00;;
5458;SDS011;2752;49.992;8.422;2023-08-12T09:42:56;7.40;;;4.53;;
5458;SDS011;2752;49.992;8.422;2023-08-12T09:45:23;6.10;;;3.93;;
5458;SDS011;2752;49.992;8.422;2023-08-12T09:47:51;7.57;;;4.80;;
5458;SDS011;2752;49.992;8.422;2023-08-12T09:50:20;7.67;;;3.57;;
5458;SDS011;2752;49.992;8.422;2023-08-12T09:52:47;8.90;;;3.93;;
5458;SDS011;2752;49.992;8.422;2023-08-12T09:55:15;11.13;;;4.77;;
5458;SDS011;2752;49.992;8.422;2023-08-12T09:57:43;7.83;;;4.03;;
5458;SDS011;2752;49.992;8.422;2023-08-12T10:00:11;11.73;;;4.00;;
5458;SDS011;2752;49.992;8.422;2023-08-12T10:02:41;5.93;;;3.73;;
5458;SDS011;2752;49.992;8.422;2023-08-12T10:05:09;5.47;;;4.20;;
5458;SDS011;2752;49.992;8.422;2023-08-12T10:07:37;8.90;;;5.37;;
5458;SDS011;2752;49.992;8.422;2023-08-12T10:10:04;8.77;;;5.30;;
5458;SDS011;2752;49.992;8.422;2023-08-12T10:12:33;9.10;;;5.27;;
5458;SDS011;2752;49.992;8.422;2023-08-12T10:15:00;12.90;;;5.33;;
5458;SDS011;2752;49.992;8.422;2023-08-12T10:17:27;14.30;;;5.40;;
5458;SDS011;2752;49.992;8.422;2023-08-12T10:19:54;10.90;;;5.33;;
5458;SDS011;2752;49.992;8.422;2023-08-12T10:22:22;9.17;;;5.27;;
5458;SDS011;2752;49.992;8.422;2023-08-12T10:24:50;14.10;;;5.27;;
5458;SDS011;2752;49.992;8.422;2023-08-12T10:27:17;10.10;;;4.83;;
5458;SDS011;2752;49.992;8.422;2023-08-12T10:29:46;6.80;;;4.73;;
5458;SDS011;2752;49.992;8.422;2023-08-12T10:32:13;7.60;;;4.00;;
5458;SDS011;2752;49.992;8.422;2023-08-12T10:34:40;7.10;;;4.13;;
5458;SDS011;2752;49.992;8.422;2023-08-12T10:37:07;6.70;;;4.63;;
5458;SDS011;2752;49.992;8.422;2023-08-12T10:39:36;8.90;;;4.40;;
5458;SDS011;2752;49.992;8.422;2023-08-12T10:42:04;8.50;;;4.30;;
5458;SDS011;2752;49.992;8.422;2023-08-12T10:44:38;12.67;;;4.60;;
5458;SDS011;2752;49.992;8.422;2023-08-12T10:47:07;7.93;;;3.50;;
5458;SDS011;2752;49.992;8.422;2023-08-12T10:49:37;5.77;;;3.40;;
5458;SDS011;2752;49.992;8.422;2023-08-12T10:52:05;7.20;;;4.03;;
5458;SDS011;2752;49.992;8.422;2023-08-12T10:54:31;8.70;;;3.70;;
5458;SDS011;2752;49.992;8.422;2023-08-12T10:57:05;7.40;;;4.10;;
5458;SDS011;2752;49.992;8.422;2023-08-12T10:59:53;6.63;;;3.90;;
5458;SDS011;2752;49.992;8.422;2023-08-12T11:02:25;6.03;;;3.20;;
5458;SDS011;2752;49.992;8.422;2023-08-12T11:04:54;4.70;;;2.83;;
5458;SDS011;2752;49.992;8.422;2023-08-12T11:07:28;9.83;;;3.83;;
5458;SDS011;2752;49.992;8.422;2023-08-12T11:09:59;7.40;;;3.43;;
5458;SDS011;2752;49.992;8.422;2023-08-12T11:12:30;11.33;;;5.07;;
5458;SDS011;2752;49.992;8.422;2023-08-12T11:14:59;4.87;;;3.50;;
5458;SDS011;2752;49.992;8.422;2023-08-12T11:17:33;4.70;;;3.23;;
5458;SDS011;2752;49.992;8.422;2023-08-12T11:20:00;5.27;;;3.40;;
5458;SDS011;2752;49.992;8.422;2023-08-12T11:22:30;8.80;;;4.43;;
5458;SDS011;2752;49.992;8.422;2023-08-12T11:24:57;9.43;;;4.10;;
5458;SDS011;2752;49.992;8.422;2023-08-12T11:27:24;7.83;;;4.00;;
5458;SDS011;2752;49.992;8.422;2023-08-12T11:29:50;7.67;;;3.40;;
5458;SDS011;2752;49.992;8.422;2023-08-12T11:32:17;4.50;;;2.90;;
5458;SDS011;2752;49.992;8.422;2023-08-12T11:34:45;7.60;;;4.60;;
5458;SDS011;2752;49.992;8.422;2023-08-12T11:37:12;7.47;;;4.57;;
5458;SDS011;2752;49.992;8.422;2023-08-12T11:39:39;9.30;;;5.53;;
5458;SDS011;2752;49.992;8.422;2023-08-12T11:42:06;8.03;;;4.83;;
5458;SDS011;2752;49.992;8.422;2023-08-12T11:44:33;13.17;;;5.37;;
5458;SDS011;2752;49.992;8.422;2023-08-12T11:46:59;6.23;;;4.50;;
5458;SDS011;2752;49.992;8.422;2023-08-12T11:49:26;9.83;;;4.70;;
5458;SDS011;2752;49.992;8.422;2023-08-12T11:51:54;7.63;;;4.50;;
5458;SDS011;2752;49.992;8.422;2023-08-12T11:54:21;7.73;;;4.20;;
5458;SDS011;2752;49.992;8.422;2023-08-12T11:56:48;6.13;;;3.73;;
5458;SDS011;2752;49.992;8.422;2023-08-12T11:59:14;10.90;;;4.20;;
5458;SDS011;2752;49.992;8.422;2023-08-12T12:01:41;8.30;;;4.47;;
5458;SDS011;2752;49.992;8.422;2023-08-12T12:04:13;6.90;;;4.27;;
5458;SDS011;2752;49.992;8.422;2023-08-12T12:06:41;8.00;;;3.53;;
5458;SDS011;2752;49.992;8.422;2023-08-12T12:09:10;8.00;;;3.70;;
5458;SDS011;2752;49.992;8.422;2023-08-12T12:11:38;4.60;;;3.57;;
5458;SDS011;2752;49.992;8.422;2023-08-12T12:14:07;4.70;;;3.27;;
5458;SDS011;2752;49.992;8.422;2023-08-12T12:16:37;5.60;;;2.97;;
5458;SDS011;2752;49.992;8.422;2023-08-12T12:19:05;5.20;;;3.33;;
5458;SDS011;2752;49.992;8.422;2023-08-12T12:21:38;5.10;;;3.50;;
5458;SDS011;2752;49.992;8.422;2023-08-12T12:24:06;5.20;;;3.10;;
5458;SDS011;2752;49.992;8.422;2023-08-12T12:26:35;4.67;;;2.67;;
5458;SDS011;2752;49.992;8.422;2023-08-12T12:29:02;5.60;;;2.70;;
5458;SDS011;2752;49.992;8.422;2023-08-12T12:31:29;4.33;;;3.17;;
5458;SDS011;2752;49.992;8.422;2023-08-12T12:33:57;4.40;;;2.40;;
5458;SDS011;2752;49.992;8.422;2023-08-12T12:36:23;4.00;;;2.77;;
5458;SDS011;2752;49.992;8.422;2023-08-12T12:38:50;4.20;;;2.37;;
5458;SDS011;2752;49.992;8.422;2023-08-12T12:41:17;5.23;;;1.97;;
5458;SDS011;2752;49.992;8.422;2023-08-12T12:43:45;5.80;;;2.40;;
5458;SDS011;2752;49.992;8.422;2023-08-12T12:46:11;2.80;;;1.70;;
5458;SDS011;2752;49.992;8.422;2023-08-12T12:48:38;4.07;;;2.07;;
5458;SDS011;2752;49.992;8.422;2023-08-12T12:51:05;4.90;;;2.13;;
5458;SDS011;2752;49.992;8.422;2023-08-12T12:53:32;3.90;;;2.30;;
5458;SDS011;2752;49.992;8.422;2023-08-12T12:55:59;5.20;;;2.23;;
5458;SDS011;2752;49.992;8.422;2023-08-12T12:58:28;4.10;;;2.10;;
5458;SDS011;2752;49.992;8.422;2023-08-12T13:00:57;4.10;;;2.30;;
5458;SDS011;2752;49.992;8.422;2023-08-12T13:03:24;2.90;;;2.37;;
5458;SDS011;2752;49.992;8.422;2023-08-12T13:05:51;5.63;;;2.67;;
5458;SDS011;2752;49.992;8.422;2023-08-12T13:08:17;8.57;;;2.00;;
5458;SDS011;2752;49.992;8.422;2023-08-12T13:10:44;3.53;;;1.90;;
5458;SDS011;2752;49.992;8.422;2023-08-12T13:13:14;7.20;;;2.00;;
5458;SDS011;2752;49.992;8.422;2023-08-12T13:15:41;3.63;;;3.13;;
5458;SDS011;2752;49.992;8.422;2023-08-12T13:18:09;3.13;;;1.70;;
5458;SDS011;2752;49.992;8.422;2023-08-12T13:20:36;4.20;;;2.13;;
5458;SDS011;2752;49.992;8.422;2023-08-12T13:23:03;6.37;;;1.70;;
5458;SDS011;2752;49.992;8.422;2023-08-12T13:25:31;4.23;;;2.63;;
5458;SDS011;2752;49.992;8.422;2023-08-12T13:27:59;7.27;;;2.00;;
5458;SDS011;2752;49.992;8.422;2023-08-12T13:30:26;3.00;;;2.03;;
5458;SDS011;2752;49.992;8.422;2023-08-12T13:32:53;4.33;;;1.83;;
5458;SDS011;2752;49.992;8.422;2023-08-12T13:35:21;4.23;;;2.00;;
5458;SDS011;2752;49.992;8.422;2023-08-12T13:37:48;3.13;;;1.90;;
5458;SDS011;2752;49.992;8.422;2023-08-12T13:40:16;5.80;;;2.00;;
5458;SDS011;2752;49.992;8.422;2023-08-12T13:42:42;2.97;;;1.93;;
5458;SDS011;2752;49.992;8.422;2023-08-12T13:45:11;4.93;;;2.10;;
5458;SDS011;2752;49.992;8.422;2023-08-12T13:47:38;5.13;;;2.17;;
5458;SDS011;2752;49.992;8.422;2023-08-12T13:50:05;6.47;;;2.00;;
5458;SDS011;2752;49.992;8.422;2023-08-12T13:52:33;2.97;;;2.07;;
5458;SDS011;2752;49.992;8.422;2023-08-12T13:55:00;3.83;;;1.77;;
5458;SDS011;2752;49.992;8.422;2023-08-12T13:57:27;3.40;;;2.20;;
5458;SDS011;2752;49.992;8.422;2023-08-12T13:59:54;2.87;;;2.30;;
5458;SDS011;2752;49.992;8.422;2023-08-12T14:02:21;8.80;;;2.03;;
5458;SDS011;2752;49.992;8.422;2023-08-12T14:04:48;4.03;;;2.33;;
5458;SDS011;2752;49.992;8.422;2023-08-12T14:07:15;4.30;;;2.50;;
5458;SDS011;2752;49.992;8.422;2023-08-12T14:09:46;2.63;;;1.73;;
5458;SDS011;2752;49.992;8.422;2023-08-12T14:12:13;13.80;;;2.60;;
5458;SDS011;2752;49.992;8.422;2023-08-12T14:14:40;2.90;;;1.97;;
5458;SDS011;2752;49.992;8.422;2023-08-12T14:17:07;3.40;;;1.80;;
5458;SDS011;2752;49.992;8.422;2023-08-12T14:19:38;3.20;;;2.50;;
5458;SDS011;2752;49.992;8.422;2023-08-12T14:22:05;2.13;;;1.63;;
5458;SDS011;2752;49.992;8.422;2023-08-12T14:24:32;6.40;;;2.70;;
5458;SDS011;2752;49.992;8.422;2023-08-12T14:27:00;5.13;;;1.93;;
5458;SDS011;2752;49.992;8.422;2023-08-12T14:29:26;3.03;;;2.20;;
5458;SDS011;2752;49.992;8.422;2023-08-12T14:31:53;2.37;;;1.90;;
5458;SDS011;2752;49.992;8.422;2023-08-12T14:34:20;8.00;;;2.30;;
5458;SDS011;2752;49.992;8.422;2023-08-12T14:36:46;4.67;;;2.50;;
5458;SDS011;2752;49.992;8.422;2023-08-12T14:39:13;3.63;;;2.17;;
5458;SDS011;2752;49.992;8.422;2023-08-12T14:41:40;3.93;;;1.97;;
5458;SDS011;2752;49.992;8.422;2023-08-12T14:44:08;4.23;;;1.93;;
5458;SDS011;2752;49.992;8.422;2023-08-12T14:46:34;5.20;;;2.10;;
5458;SDS011;2752;49.992;8.422;2023-08-12T14:49:01;6.40;;;2.40;;
5458;SDS011;2752;49.992;8.422;2023-08-12T14:51:28;4.17;;;2.27;;
5458;SDS011;2752;49.992;8.422;2023-08-12T14:53:55;2.10;;;1.90;;
5458;SDS011;2752;49.992;8.422;2023-08-12T14:56:22;5.60;;;2.73;;
5458;SDS011;2752;49.992;8.422;2023-08-12T14:58:48;3.53;;;2.43;;
5458;SDS011;2752;49.992;8.422;2023-08-12T15:01:16;3.53;;;2.30;;
5458;SDS011;2752;49.992;8.422;2023-08-12T15:03:43;3.47;;;2.30;;